Bee, VA (24217)

7:16 AM EDT on July 29, 2015 (GMT -0400)
Southwest Virginia, 4 miles SSE | | Change Station
CLOSE
Current Station
Personal Weather Station
Location: Nora, VA
Elevation: 2650 ft
Nearby Weather Stations

Elev 2650 ft 37.02 °N, 82.32 °W | Updated 25 minutes ago

Rain
Rain
69.1 °F
Feels Like 69.1 °F
N
0.0
Wind Variable Wind from NW
Gusts 3.0 mph

Today
High -- | Low -- °F
--% Chance of Precip.
Yesterday
High -- | Low -- °F
Precip. -- in
6:31 AM 8:38 PM
Waxing Gibbous, 95% visible
Pressure 30.10 in
Visibility 0.2 miles
Clouds Overcast 200 ft
Dew Point 67 °F
Humidity 94%
Rainfall -999.00 in
Snow Depth Not available.
UV 0 out of 12
Pollen 3.90 out of 12
Air Quality Not available.
Flu Activity Not available.
METAR KLNP 291038Z AUTO 00000KT M1/4SM FG OVC002 22/22 A3010 RMK AO2

More Conditions Fewer Conditions

Pressure 30.10 in
Visibility 0.2 miles
Clouds Overcast 200 ft
Dew Point 67 °F
Humidity 94%
Rainfall -999.00 in
Snow Depth Not available.
UV 0 out of 12
Pollen 3.90 out of 12
Air Quality Not available.
Flu Activity Not available.
METAR KLNP 291038Z AUTO 00000KT M1/4SM FG OVC002 22/22 A3010 RMK AO2

More Conditions Fewer Conditions

10-Day Weather Forecast

×

Almanac

Astronomy

Jul. 29, 2015 Rise Set
Actual Time
Civil Twilight
Nautical Twilight
Astronomical Twilight
Moon
Length of Visible Light
Length of Day
Tomorrow will be .
, % of the Moon is Illuminated

Today's Extremes

State Highs State Lows

Community

WunderPhotos

Upload Photos

1,842,075 photos uploaded!

WunderBlogs® & News

Nearby

Air Quality

  Air Quality AQ Index Pollutant
Not available.

Snow Depth

Station Depth Elevation

Earthquake Activity

City Distance Mag. Time & Date
Minimum magnitude displayed is 2.5.

Coastal Water Temperatures

Place Temperature

Stations

Nearby Weather Stations

Station Location Temp. Windchill Dew Point Humidity Wind Precip. Elev Updated Type